Terminal Aerodrome Forecast
Issued by NWS

Home | Current Version | Previous Version | Graphics & Text | Print | Product List | Glossary On
Versions: 1 2 3 4 5 6 7 8 9 10 11 12 13 14 15 16 17 18 19 20 21 22
000
FTUS43 KGRB 192300
TAFAUW
TAF
KAUW 192335Z 2000/2024 22006KT P6SM FEW040 SCT100
     FM200500 27006KT P6SM FEW050 FEW100
     FM201100 31007KT P6SM SCT030 BKN050
     FM201500 32010G15KT P6SM VCSH BKN030 BKN040=

USA.gov is the U.S. government's official web portal to all federal, state and local government web resources and services.